Terminal Aerodrome Forecast
Issued by NWS Wilmington, NC

Home | Current Version | Previous Version | Text Only | Print | Product List | Glossary On
Versions: 1 2 3 4 5 6 7 8 9 10 11 12 13 14 15 16
000
FTUS42 KILM 202300
TAFILM
TAF
KILM 202320Z 2100/2124 VRB03KT P6SM SCT050
     FM210600 VRB02KT P6SM VCSH SCT040
     FM211300 32006KT P6SM FEW040=

USA.gov is the U.S. government's official web portal to all federal, state and local government web resources and services.